sensor_id;sensor_type;location;lat;lon;timestamp;pressure;altitude;pressure_sealevel;temperature;humidity
78014;BME280;67222;50.182;8.734;2023-02-02T05:31:32;100987.88;;;6.33;79.18
78014;BME280;67222;50.182;8.734;2023-02-02T05:33:58;101000.56;;;6.29;79.80
78014;BME280;67222;50.182;8.734;2023-02-02T05:36:23;100988.53;;;6.35;78.82
78014;BME280;67222;50.182;8.734;2023-02-02T05:38:49;100990.34;;;6.34;79.22
78014;BME280;67222;50.182;8.734;2023-02-02T05:41:14;100997.97;;;6.37;78.56
78014;BME280;67222;50.182;8.734;2023-02-02T05:43:39;101006.69;;;6.30;79.42
78014;BME280;67222;50.182;8.734;2023-02-02T05:46:05;101006.91;;;6.36;79.50
78014;BME280;67222;50.182;8.734;2023-02-02T05:48:30;101005.56;;;6.32;79.22
78014;BME280;67222;50.182;8.734;2023-02-02T05:51:00;101000.56;;;6.29;79.04
78014;BME280;67222;50.182;8.734;2023-02-02T05:53:29;100998.63;;;6.40;78.61
78014;BME280;67222;50.182;8.734;2023-02-02T05:55:55;101008.72;;;6.36;78.46
78014;BME280;67222;50.182;8.734;2023-02-02T05:58:20;101003.25;;;6.37;79.15
78014;BME280;67222;50.182;8.734;2023-02-02T06:00:45;101000.56;;;6.29;79.73
78014;BME280;67222;50.182;8.734;2023-02-02T06:03:11;101006.53;;;6.31;79.07
78014;BME280;67222;50.182;8.734;2023-02-02T06:05:37;101013.69;;;6.39;78.54
78014;BME280;67222;50.182;8.734;2023-02-02T06:08:02;101011.69;;;6.33;78.90
78014;BME280;67222;50.182;8.734;2023-02-02T06:10:28;101006.06;;;6.36;79.03
78014;BME280;67222;50.182;8.734;2023-02-02T06:12:55;101000.44;;;6.39;78.92
78014;BME280;67222;50.182;8.734;2023-02-02T06:15:20;100993.50;;;6.38;79.85
78014;BME280;67222;50.182;8.734;2023-02-02T06:17:46;101001.41;;;6.30;80.04
78014;BME280;67222;50.182;8.734;2023-02-02T06:20:11;100994.28;;;6.30;79.31
78014;BME280;67222;50.182;8.734;2023-02-02T06:22:37;101001.06;;;6.25;79.74
78014;BME280;67222;50.182;8.734;2023-02-02T06:25:02;100998.25;;;6.18;79.91
78014;BME280;67222;50.182;8.734;2023-02-02T06:27:30;101001.56;;;6.20;79.63
78014;BME280;67222;50.182;8.734;2023-02-02T06:29:55;101009.66;;;6.19;80.38
78014;BME280;67222;50.182;8.734;2023-02-02T06:32:20;101016.78;;;6.26;80.24
78014;BME280;67222;50.182;8.734;2023-02-02T06:34:46;101024.91;;;6.25;79.69
78014;BME280;67222;50.182;8.734;2023-02-02T06:37:11;101032.53;;;6.28;79.25
78014;BME280;67222;50.182;8.734;2023-02-02T06:39:36;101032.53;;;6.28;79.75
78014;BME280;67222;50.182;8.734;2023-02-02T06:42:02;101032.88;;;6.33;79.43
78014;BME280;67222;50.182;8.734;2023-02-02T06:44:27;101032.56;;;6.36;78.61
78014;BME280;67222;50.182;8.734;2023-02-02T06:46:53;101037.66;;;6.29;79.24
78014;BME280;67222;50.182;8.734;2023-02-02T06:49:18;101027.59;;;6.33;79.21
78014;BME280;67222;50.182;8.734;2023-02-02T06:51:46;101041.13;;;6.30;79.44
78014;BME280;67222;50.182;8.734;2023-02-02T06:54:12;101019.94;;;6.30;79.97
78014;BME280;67222;50.182;8.734;2023-02-02T06:56:37;101034.19;;;6.29;80.03
78014;BME280;67222;50.182;8.734;2023-02-02T06:59:02;101019.94;;;6.30;79.09
78014;BME280;67222;50.182;8.734;2023-02-02T07:01:27;101031.53;;;6.29;79.93
78014;BME280;67222;50.182;8.734;2023-02-02T07:03:53;101016.16;;;6.32;79.67
78014;BME280;67222;50.182;8.734;2023-02-02T07:06:24;101019.47;;;6.34;79.77
78014;BME280;67222;50.182;8.734;2023-02-02T07:08:51;101006.06;;;6.36;79.89
78014;BME280;67222;50.182;8.734;2023-02-02T07:11:17;101006.56;;;6.40;80.08
78014;BME280;67222;50.182;8.734;2023-02-02T07:13:44;101017.16;;;6.48;79.76
78014;BME280;67222;50.182;8.734;2023-02-02T07:16:09;101016.88;;;6.51;78.40
78014;BME280;67222;50.182;8.734;2023-02-02T07:18:36;101021.19;;;6.52;78.92
78014;BME280;67222;50.182;8.734;2023-02-02T07:21:02;101007.41;;;6.40;78.62
78014;BME280;67222;50.182;8.734;2023-02-02T07:23:28;101023.28;;;6.40;78.72
78014;BME280;67222;50.182;8.734;2023-02-02T07:26:07;101030.59;;;6.46;77.98
78014;BME280;67222;50.182;8.734;2023-02-02T07:28:34;101033.91;;;6.48;77.57
78014;BME280;67222;50.182;8.734;2023-02-02T07:31:00;101022.31;;;6.49;77.47
78014;BME280;67222;50.182;8.734;2023-02-02T07:33:35;101039.72;;;6.52;77.92
78014;BME280;67222;50.182;8.734;2023-02-02T07:36:04;101034.88;;;6.47;77.32
78014;BME280;67222;50.182;8.734;2023-02-02T07:38:29;101036.91;;;6.53;77.55
78014;BME280;67222;50.182;8.734;2023-02-02T07:40:55;101044.53;;;6.56;78.00
78014;BME280;67222;50.182;8.734;2023-02-02T07:43:20;101045.03;;;6.52;77.42
78014;BME280;67222;50.182;8.734;2023-02-02T07:45:45;101045.53;;;6.55;77.18
78014;BME280;67222;50.182;8.734;2023-02-02T07:48:11;101037.56;;;6.55;78.32
78014;BME280;67222;50.182;8.734;2023-02-02T07:50:36;101047.50;;;6.53;77.91
78014;BME280;67222;50.182;8.734;2023-02-02T07:53:01;101052.28;;;6.50;78.88
78014;BME280;67222;50.182;8.734;2023-02-02T07:55:27;101054.41;;;6.38;77.97
78014;BME280;67222;50.182;8.734;2023-02-02T07:57:53;101051.44;;;6.33;78.98
78014;BME280;67222;50.182;8.734;2023-02-02T08:00:24;101049.59;;;6.33;79.77
78014;BME280;67222;50.182;8.734;2023-02-02T08:02:50;101058.38;;;6.34;79.88
78014;BME280;67222;50.182;8.734;2023-02-02T08:05:16;101044.31;;;6.33;79.49
78014;BME280;67222;50.182;8.734;2023-02-02T08:07:42;101046.59;;;6.28;79.79
78014;BME280;67222;50.182;8.734;2023-02-02T08:10:09;101058.88;;;6.37;79.41
78014;BME280;67222;50.182;8.734;2023-02-02T08:12:34;101062.69;;;6.43;78.95
78014;BME280;67222;50.182;8.734;2023-02-02T08:15:00;101067.16;;;6.43;78.72
78014;BME280;67222;50.182;8.734;2023-02-02T08:17:25;101071.63;;;6.42;78.15
78014;BME280;67222;50.182;8.734;2023-02-02T08:19:50;101080.41;;;6.43;77.90
78014;BME280;67222;50.182;8.734;2023-02-02T08:22:15;101076.59;;;6.45;78.10
78014;BME280;67222;50.182;8.734;2023-02-02T08:24:41;101092.56;;;6.53;78.35
78014;BME280;67222;50.182;8.734;2023-02-02T08:27:07;101083.78;;;6.53;77.51
78014;BME280;67222;50.182;8.734;2023-02-02T08:29:34;101085.59;;;6.52;77.95
78014;BME280;67222;50.182;8.734;2023-02-02T08:31:59;101079.63;;;6.58;78.22
78014;BME280;67222;50.182;8.734;2023-02-02T08:34:26;101077.81;;;6.59;77.91
78014;BME280;67222;50.182;8.734;2023-02-02T08:36:51;101080.63;;;6.57;77.50
78014;BME280;67222;50.182;8.734;2023-02-02T08:39:16;101082.94;;;6.60;77.25
78014;BME280;67222;50.182;8.734;2023-02-02T08:41:41;101096.03;;;6.62;76.90
78014;BME280;67222;50.182;8.734;2023-02-02T08:44:08;101097.84;;;6.61;77.38
78014;BME280;67222;50.182;8.734;2023-02-02T08:46:33;101093.06;;;6.65;77.51
78014;BME280;67222;50.182;8.734;2023-02-02T08:48:59;101087.09;;;6.63;76.65
78014;BME280;67222;50.182;8.734;2023-02-02T08:51:24;101093.56;;;6.60;76.94
78014;BME280;67222;50.182;8.734;2023-02-02T08:53:50;101088.63;;;6.74;76.76
78014;BME280;67222;50.182;8.734;2023-02-02T08:56:17;101102.66;;;6.66;76.88
78014;BME280;67222;50.182;8.734;2023-02-02T08:58:48;101109.66;;;6.75;77.49
78014;BME280;67222;50.182;8.734;2023-02-02T09:01:16;101109.66;;;6.75;77.10
78014;BME280;67222;50.182;8.734;2023-02-02T09:03:42;101108.00;;;6.74;77.41
78014;BME280;67222;50.182;8.734;2023-02-02T09:06:10;101105.53;;;6.81;76.17
78014;BME280;67222;50.182;8.734;2023-02-02T09:08:36;101112.16;;;6.77;76.04
78014;BME280;67222;50.182;8.734;2023-02-02T09:11:13;101105.53;;;6.81;76.04
78014;BME280;67222;50.182;8.734;2023-02-02T09:13:39;101107.53;;;6.87;75.95
78014;BME280;67222;50.182;8.734;2023-02-02T09:16:07;101112.81;;;6.87;75.23
78014;BME280;67222;50.182;8.734;2023-02-02T09:18:33;101114.63;;;6.86;76.26
78014;BME280;67222;50.182;8.734;2023-02-02T09:20:59;101104.25;;;6.93;75.54
78014;BME280;67222;50.182;8.734;2023-02-02T09:23:25;101109.03;;;6.89;75.04
78014;BME280;67222;50.182;8.734;2023-02-02T09:25:53;101107.84;;;6.84;75.33
78014;BME280;67222;50.182;8.734;2023-02-02T09:28:18;101102.53;;;6.84;75.27
78014;BME280;67222;50.182;8.734;2023-02-02T09:30:43;101115.81;;;6.84;75.27
78014;BME280;67222;50.182;8.734;2023-02-02T09:33:09;101111.50;;;6.83;75.92
78014;BME280;67222;50.182;8.734;2023-02-02T09:35:34;101112.53;;;6.90;76.32
78014;BME280;67222;50.182;8.734;2023-02-02T09:37:59;101117.47;;;6.85;75.59
78014;BME280;67222;50.182;8.734;2023-02-02T09:40:25;101129.09;;;6.92;74.46
78014;BME280;67222;50.182;8.734;2023-02-02T09:45:54;101135.72;;;6.96;74.52
78014;BME280;67222;50.182;8.734;2023-02-02T09:48:30;101147.16;;;6.96;76.60
78014;BME280;67222;50.182;8.734;2023-02-02T09:51:02;101139.38;;;6.95;74.95
78014;BME280;67222;50.182;8.734;2023-02-02T09:53:37;101143.84;;;6.94;74.84
78014;BME280;67222;50.182;8.734;2023-02-02T09:56:05;101146.31;;;6.96;75.26
78014;BME280;67222;50.182;8.734;2023-02-02T09:58:41;101157.94;;;6.95;74.86
78014;BME280;67222;50.182;8.734;2023-02-02T10:01:42;101165.88;;;7.03;75.06
78014;BME280;67222;50.182;8.734;2023-02-02T10:04:05;101166.88;;;7.02;75.16
78014;BME280;67222;50.182;8.734;2023-02-02T10:06:35;101169.53;;;7.02;75.37
78014;BME280;67222;50.182;8.734;2023-02-02T10:09:33;101173.72;;;7.13;74.67
78014;BME280;67222;50.182;8.734;2023-02-02T10:17:14;101182.16;;;7.08;75.52
78014;BME280;67222;50.182;8.734;2023-02-02T10:19:47;101191.28;;;7.14;74.98
78014;BME280;67222;50.182;8.734;2023-02-02T10:22:19;101185.66;;;7.17;74.68
78014;BME280;67222;50.182;8.734;2023-02-02T10:24:46;101195.13;;;7.27;75.58
78014;BME280;67222;50.182;8.734;2023-02-02T10:27:16;101189.16;;;7.42;74.78
78014;BME280;67222;50.182;8.734;2023-02-02T10:29:57;101182.38;;;7.47;73.00
78014;BME280;67222;50.182;8.734;2023-02-02T10:32:27;101186.69;;;7.56;73.83
78014;BME280;67222;50.182;8.734;2023-02-02T10:45:17;101186.19;;;7.61;72.84
78014;BME280;67222;50.182;8.734;2023-02-02T10:47:43;101182.53;;;7.62;71.62
78014;BME280;67222;50.182;8.734;2023-02-02T10:52:42;101197.13;;;7.58;72.24
78014;BME280;67222;50.182;8.734;2023-02-02T10:55:30;101186.19;;;7.61;73.85
78014;BME280;67222;50.182;8.734;2023-02-02T10:58:22;101179.22;;;7.60;72.87
78014;BME280;67222;50.182;8.734;2023-02-02T11:00:54;101180.22;;;7.67;72.58
78014;BME280;67222;50.182;8.734;2023-02-02T11:03:26;101193.50;;;7.67;72.20
78014;BME280;67222;50.182;8.734;2023-02-02T11:05:52;101192.50;;;7.68;72.07
78014;BME280;67222;50.182;8.734;2023-02-02T11:08:41;101185.88;;;7.72;71.05
78014;BME280;67222;50.182;8.734;2023-02-02T11:11:20;101184.03;;;7.73;71.79
78014;BME280;67222;50.182;8.734;2023-02-02T11:16:36;101188.34;;;7.74;72.75
78014;BME280;67222;50.182;8.734;2023-02-02T11:19:22;101201.13;;;7.70;72.65
78014;BME280;67222;50.182;8.734;2023-02-02T11:21:49;101186.19;;;7.61;72.74
78014;BME280;67222;50.182;8.734;2023-02-02T11:29:47;101202.44;;;7.58;74.49
78014;BME280;67222;50.182;8.734;2023-02-02T11:37:27;101206.06;;;7.41;75.26
78014;BME280;67222;50.182;8.734;2023-02-02T11:39:52;101187.66;;;7.39;75.21
78014;BME280;67222;50.182;8.734;2023-02-02T11:44:48;101196.81;;;7.45;74.66
78014;BME280;67222;50.182;8.734;2023-02-02T11:47:25;101193.97;;;7.38;75.08
78014;BME280;67222;50.182;8.734;2023-02-02T11:49:52;101186.84;;;7.39;75.36
78014;BME280;67222;50.182;8.734;2023-02-02T11:52:24;101196.94;;;7.27;75.94
78014;BME280;67222;50.182;8.734;2023-02-02T11:54:56;101201.94;;;7.30;76.45
78014;BME280;67222;50.182;8.734;2023-02-02T11:57:24;101198.56;;;7.20;76.22
78014;BME280;67222;50.182;8.734;2023-02-02T11:59:51;101190.94;;;7.17;76.80
78014;BME280;67222;50.182;8.734;2023-02-02T12:02:32;101196.09;;;7.18;76.83
78014;BME280;67222;50.182;8.734;2023-02-02T12:07:40;101191.47;;;7.28;76.30
78014;BME280;67222;50.182;8.734;2023-02-02T12:10:26;101194.97;;;7.29;76.17
78014;BME280;67222;50.182;8.734;2023-02-02T12:13:08;101199.94;;;7.32;75.38
78014;BME280;67222;50.182;8.734;2023-02-02T12:15:51;101201.44;;;7.35;76.33
78014;BME280;67222;50.182;8.734;2023-02-02T12:21:03;101202.78;;;7.47;76.37
78014;BME280;67222;50.182;8.734;2023-02-02T12:26:28;101201.13;;;7.46;75.13
78014;BME280;67222;50.182;8.734;2023-02-02T12:51:00;101210.06;;;7.53;75.95
78014;BME280;67222;50.182;8.734;2023-02-02T13:01:22;101218.19;;;7.35;77.23
78014;BME280;67222;50.182;8.734;2023-02-02T13:06:59;101219.66;;;7.38;76.92
78014;BME280;67222;50.182;8.734;2023-02-02T13:12:36;101217.88;;;7.46;76.07
78014;BME280;67222;50.182;8.734;2023-02-02T13:15:06;101209.91;;;7.54;77.16
78014;BME280;67222;50.182;8.734;2023-02-02T13:17:40;101225.84;;;7.54;76.68
78014;BME280;67222;50.182;8.734;2023-02-02T13:20:46;101221.03;;;7.58;75.53
78014;BME280;67222;50.182;8.734;2023-02-02T13:23:19;101238.94;;;7.56;75.53
78014;BME280;67222;50.182;8.734;2023-02-02T13:25:49;101228.00;;;7.59;75.87
78014;BME280;67222;50.182;8.734;2023-02-02T13:28:40;101221.88;;;7.75;75.74
78014;BME280;67222;50.182;8.734;2023-02-02T13:31:14;101235.13;;;7.58;75.96
78014;BME280;67222;50.182;8.734;2023-02-02T13:33:43;101229.84;;;7.67;75.65
78014;BME280;67222;50.182;8.734;2023-02-02T13:36:22;101228.00;;;7.67;76.49
78014;BME280;67222;50.182;8.734;2023-02-02T13:38:57;101230.47;;;7.60;75.81
78014;BME280;67222;50.182;8.734;2023-02-02T13:41:24;101233.31;;;7.67;75.03
78014;BME280;67222;50.182;8.734;2023-02-02T13:44:11;101234.81;;;7.70;74.93
78014;BME280;67222;50.182;8.734;2023-02-02T13:46:53;101232.16;;;7.78;74.81
78014;BME280;67222;50.182;8.734;2023-02-02T13:49:28;101232.97;;;7.70;75.69
78014;BME280;67222;50.182;8.734;2023-02-02T13:55:01;101246.25;;;7.70;76.12
78014;BME280;67222;50.182;8.734;2023-02-02T13:58:05;101245.25;;;7.71;75.86
78014;BME280;67222;50.182;8.734;2023-02-02T14:00:40;101245.59;;;7.84;74.43
78014;BME280;67222;50.182;8.734;2023-02-02T14:03:26;101248.25;;;7.84;74.95
78014;BME280;67222;50.182;8.734;2023-02-02T14:06:12;101242.78;;;7.86;74.46
78014;BME280;67222;50.182;8.734;2023-02-02T14:08:42;101245.91;;;7.98;74.72
78014;BME280;67222;50.182;8.734;2023-02-02T14:11:16;101253.22;;;7.96;74.62
78014;BME280;67222;50.182;8.734;2023-02-02T14:13:46;101261.69;;;7.99;74.15
78014;BME280;67222;50.182;8.734;2023-02-02T14:19:03;101257.53;;;7.97;75.06
78014;BME280;67222;50.182;8.734;2023-02-02T14:31:55;101275.47;;;7.86;74.58
78014;BME280;67222;50.182;8.734;2023-02-02T14:34:40;101281.78;;;8.02;74.07
78014;BME280;67222;50.182;8.734;2023-02-02T14:43:07;101294.41;;;8.08;72.05
78014;BME280;67222;50.182;8.734;2023-02-02T14:49:10;101304.72;;;8.19;73.18
78014;BME280;67222;50.182;8.734;2023-02-02T14:51:55;101295.38;;;8.15;72.93
78014;BME280;67222;50.182;8.734;2023-02-02T14:54:29;101301.19;;;8.10;72.68
78014;BME280;67222;50.182;8.734;2023-02-02T14:56:59;101306.69;;;8.09;72.76
78014;BME280;67222;50.182;8.734;2023-02-02T14:59:31;101308.19;;;8.11;73.23
78014;BME280;67222;50.182;8.734;2023-02-02T15:04:36;101307.19;;;8.12;73.67
78014;BME280;67222;50.182;8.734;2023-02-02T15:07:36;101324.28;;;8.10;73.27
78014;BME280;67222;50.182;8.734;2023-02-02T15:10:03;101321.13;;;8.06;74.87
78014;BME280;67222;50.182;8.734;2023-02-02T15:12:30;101304.88;;;8.01;74.43
78014;BME280;67222;50.182;8.734;2023-02-02T15:15:05;101307.00;;;7.98;75.55
78014;BME280;67222;50.182;8.734;2023-02-02T15:20:32;101328.25;;;7.89;75.62
78014;BME280;67222;50.182;8.734;2023-02-02T15:26:03;101324.94;;;7.87;75.06
78014;BME280;67222;50.182;8.734;2023-02-02T15:28:41;101328.91;;;7.92;75.61
78014;BME280;67222;50.182;8.734;2023-02-02T15:31:27;101335.88;;;7.93;75.56
78014;BME280;67222;50.182;8.734;2023-02-02T15:33:58;101339.88;;;7.97;75.96
78014;BME280;67222;50.182;8.734;2023-02-02T15:36:31;101333.22;;;7.93;76.00
78014;BME280;67222;50.182;8.734;2023-02-02T15:39:03;101331.25;;;7.86;74.90
78014;BME280;67222;50.182;8.734;2023-02-02T15:41:33;101332.72;;;7.89;75.59
78014;BME280;67222;50.182;8.734;2023-02-02T15:44:16;101339.88;;;7.88;75.90
78014;BME280;67222;50.182;8.734;2023-02-02T15:46:42;101348.16;;;7.85;75.34
78014;BME280;67222;50.182;8.734;2023-02-02T15:51:47;101344.50;;;7.86;75.21
78014;BME280;67222;50.182;8.734;2023-02-02T15:54:29;101354.31;;;7.86;75.00
78014;BME280;67222;50.182;8.734;2023-02-02T15:56:57;101353.66;;;7.92;73.80
78014;BME280;67222;50.182;8.734;2023-02-02T15:59:25;101353.97;;;7.97;73.59
78014;BME280;67222;50.182;8.734;2023-02-02T16:02:22;101356.47;;;7.90;74.02
78014;BME280;67222;50.182;8.734;2023-02-02T16:04:50;101371.41;;;7.92;73.97
78014;BME280;67222;50.182;8.734;2023-02-02T16:07:18;101371.72;;;7.88;74.00
78014;BME280;67222;50.182;8.734;2023-02-02T16:09:46;101366.09;;;7.92;73.79
78014;BME280;67222;50.182;8.734;2023-02-02T16:12:15;101371.72;;;7.88;74.16
78014;BME280;67222;50.182;8.734;2023-02-02T16:14:49;101372.56;;;7.89;73.58
78014;BME280;67222;50.182;8.734;2023-02-02T16:17:29;101382.69;;;7.85;73.60
78014;BME280;67222;50.182;8.734;2023-02-02T16:20:04;101384.00;;;7.89;73.30
78014;BME280;67222;50.182;8.734;2023-02-02T16:22:32;101389.81;;;7.93;73.58
78014;BME280;67222;50.182;8.734;2023-02-02T16:25:01;101383.34;;;7.96;73.54
78014;BME280;67222;50.182;8.734;2023-02-02T16:27:30;101395.34;;;8.00;72.87
78014;BME280;67222;50.182;8.734;2023-02-02T16:30:00;101389.16;;;7.99;72.12
78014;BME280;67222;50.182;8.734;2023-02-02T16:32:33;101400.16;;;8.04;72.36
78014;BME280;67222;50.182;8.734;2023-02-02T16:35:02;101395.19;;;8.01;71.78
78014;BME280;67222;50.182;8.734;2023-02-02T16:37:32;101401.31;;;8.02;71.46
78014;BME280;67222;50.182;8.734;2023-02-02T16:40:37;101408.75;;;7.98;71.70
78014;BME280;67222;50.182;8.734;2023-02-02T16:43:06;101414.22;;;7.97;72.16
78014;BME280;67222;50.182;8.734;2023-02-02T16:45:51;101407.63;;;8.01;71.22
78014;BME280;67222;50.182;8.734;2023-02-02T16:53:40;101401.16;;;8.03;71.22
78014;BME280;67222;50.182;8.734;2023-02-02T16:56:06;101394.34;;;8.09;70.52
78014;BME280;67222;50.182;8.734;2023-02-02T16:58:38;101399.16;;;8.13;70.66
78014;BME280;67222;50.182;8.734;2023-02-02T17:01:09;101401.31;;;8.10;70.08
78014;BME280;67222;50.182;8.734;2023-02-02T17:03:43;101417.75;;;8.13;70.51
78014;BME280;67222;50.182;8.734;2023-02-02T17:06:10;101419.09;;;8.09;70.24
78014;BME280;67222;50.182;8.734;2023-02-02T17:08:37;101432.53;;;8.08;69.82
78014;BME280;67222;50.182;8.734;2023-02-02T17:11:18;101434.53;;;8.14;70.69
78014;BME280;67222;50.182;8.734;2023-02-02T17:13:44;101438.84;;;8.07;69.68
78014;BME280;67222;50.182;8.734;2023-02-02T17:16:12;101445.16;;;8.14;69.60
78014;BME280;67222;50.182;8.734;2023-02-02T17:18:40;101451.97;;;8.16;70.96
78014;BME280;67222;50.182;8.734;2023-02-02T17:21:06;101450.47;;;8.14;70.82
78014;BME280;67222;50.182;8.734;2023-02-02T17:23:32;101461.91;;;8.14;69.94
78014;BME280;67222;50.182;8.734;2023-02-02T17:26:05;101462.41;;;8.10;70.15
78014;BME280;67222;50.182;8.734;2023-02-02T17:28:32;101457.94;;;8.02;69.69
78014;BME280;67222;50.182;8.734;2023-02-02T17:31:04;101461.91;;;8.06;69.96
78014;BME280;67222;50.182;8.734;2023-02-02T17:33:32;101461.75;;;8.08;69.88
78014;BME280;67222;50.182;8.734;2023-02-02T17:35:58;101469.38;;;8.03;69.57
78014;BME280;67222;50.182;8.734;2023-02-02T17:38:24;101465.88;;;8.02;70.07
78014;BME280;67222;50.182;8.734;2023-02-02T17:40:50;101462.06;;;8.05;70.46
78014;BME280;67222;50.182;8.734;2023-02-02T17:43:15;101459.91;;;8.00;69.91
78014;BME280;67222;50.182;8.734;2023-02-02T17:45:41;101468.53;;;8.02;69.55
78014;BME280;67222;50.182;8.734;2023-02-02T17:48:11;101459.59;;;8.03;70.09
78014;BME280;67222;50.182;8.734;2023-02-02T17:50:38;101468.72;;;8.01;69.47
78014;BME280;67222;50.182;8.734;2023-02-02T17:53:03;101475.31;;;7.97;70.07
78014;BME280;67222;50.182;8.734;2023-02-02T17:55:31;101466.19;;;7.99;69.38
78014;BME280;67222;50.182;8.734;2023-02-02T17:57:57;101459.91;;;8.00;69.80
78014;BME280;67222;50.182;8.734;2023-02-02T18:00:24;101457.44;;;8.07;70.22
78014;BME280;67222;50.182;8.734;2023-02-02T18:02:56;101471.03;;;8.04;69.17
78014;BME280;67222;50.182;8.734;2023-02-02T18:05:24;101464.56;;;8.06;69.72
78014;BME280;67222;50.182;8.734;2023-02-02T18:07:49;101478.81;;;7.97;69.62
78014;BME280;67222;50.182;8.734;2023-02-02T18:10:15;101470.34;;;7.94;70.06
78014;BME280;67222;50.182;8.734;2023-02-02T18:12:41;101480.63;;;7.97;69.85
78014;BME280;67222;50.182;8.734;2023-02-02T18:15:10;101477.50;;;8.01;69.70
78014;BME280;67222;50.182;8.734;2023-02-02T18:17:35;101472.50;;;7.98;69.58
78014;BME280;67222;50.182;8.734;2023-02-02T18:20:01;101479.63;;;7.98;69.13
78014;BME280;67222;50.182;8.734;2023-02-02T18:22:26;101467.19;;;7.98;69.27
78014;BME280;67222;50.182;8.734;2023-02-02T18:24:52;101463.69;;;7.98;70.00
78014;BME280;67222;50.182;8.734;2023-02-02T18:27:17;101474.66;;;7.95;69.58
78014;BME280;67222;50.182;8.734;2023-02-02T18:29:46;101467.19;;;7.98;69.70
78014;BME280;67222;50.182;8.734;2023-02-02T18:32:13;101464.03;;;7.95;70.24
78014;BME280;67222;50.182;8.734;2023-02-02T18:34:40;101480.63;;;7.97;69.64
78014;BME280;67222;50.182;8.734;2023-02-02T18:37:06;101486.59;;;7.99;68.92
78014;BME280;67222;50.182;8.734;2023-02-02T18:39:31;101487.94;;;7.95;69.81
78014;BME280;67222;50.182;8.734;2023-02-02T18:41:57;101481.09;;;7.84;69.99
78014;BME280;67222;50.182;8.734;2023-02-02T18:44:23;101484.09;;;7.89;69.95
78014;BME280;67222;50.182;8.734;2023-02-02T18:46:49;101477.94;;;7.88;70.38
78014;BME280;67222;50.182;8.734;2023-02-02T18:49:15;101489.09;;;7.92;70.12
78014;BME280;67222;50.182;8.734;2023-02-02T18:51:40;101490.41;;;7.88;69.05
78014;BME280;67222;50.182;8.734;2023-02-02T18:54:06;101487.91;;;7.86;69.71
78014;BME280;67222;50.182;8.734;2023-02-02T18:56:32;101491.41;;;7.95;69.77
78014;BME280;67222;50.182;8.734;2023-02-02T18:58:58;101487.41;;;7.91;69.85
78014;BME280;67222;50.182;8.734;2023-02-02T19:01:23;101483.25;;;7.88;69.62
78014;BME280;67222;50.182;8.734;2023-02-02T19:03:52;101487.25;;;7.84;69.70
78014;BME280;67222;50.182;8.734;2023-02-02T19:06:18;101482.75;;;7.85;70.26
78014;BME280;67222;50.182;8.734;2023-02-02T19:09:04;101487.25;;;7.84;69.87
78014;BME280;67222;50.182;8.734;2023-02-02T19:11:37;101494.31;;;7.76;70.09
78014;BME280;67222;50.182;8.734;2023-02-02T19:16:43;101479.53;;;7.73;70.58
78014;BME280;67222;50.182;8.734;2023-02-02T19:19:19;101480.06;;;7.77;69.61
78014;BME280;67222;50.182;8.734;2023-02-02T19:21:46;101466.94;;;7.75;70.90
78014;BME280;67222;50.182;8.734;2023-02-02T19:24:12;101474.56;;;7.70;71.01
78014;BME280;67222;50.182;8.734;2023-02-02T19:26:40;101471.84;;;7.62;71.48
78014;BME280;67222;50.182;8.734;2023-02-02T19:29:23;101472.22;;;7.67;71.89
78014;BME280;67222;50.182;8.734;2023-02-02T19:31:58;101466.59;;;7.70;71.94
78014;BME280;67222;50.182;8.734;2023-02-02T19:34:25;101479.78;;;7.54;71.74
78014;BME280;67222;50.182;8.734;2023-02-02T19:36:50;101484.09;;;7.55;71.68
78014;BME280;67222;50.182;8.734;2023-02-02T19:39:28;101472.16;;;7.59;71.25
78014;BME280;67222;50.182;8.734;2023-02-02T19:41:58;101477.28;;;7.52;71.23
78014;BME280;67222;50.182;8.734;2023-02-02T19:44:26;101467.81;;;7.50;71.77
78014;BME280;67222;50.182;8.734;2023-02-02T19:46:53;101468.81;;;7.49;71.27
78014;BME280;67222;50.182;8.734;2023-02-02T19:49:32;101478.09;;;7.45;71.59
78014;BME280;67222;50.182;8.734;2023-02-02T19:51:58;101463.84;;;7.46;71.47
78014;BME280;67222;50.182;8.734;2023-02-02T19:54:27;101468.50;;;7.52;71.35
78014;BME280;67222;50.182;8.734;2023-02-02T19:56:58;101463.34;;;7.50;70.90
78014;BME280;67222;50.182;8.734;2023-02-02T19:59:25;101469.50;;;7.51;71.68
78014;BME280;67222;50.182;8.734;2023-02-02T20:01:53;101463.34;;;7.50;72.31
78014;BME280;67222;50.182;8.734;2023-02-02T20:04:20;101468.81;;;7.49;71.18
78014;BME280;67222;50.182;8.734;2023-02-02T20:06:46;101468.31;;;7.45;71.21
78014;BME280;67222;50.182;8.734;2023-02-02T20:09:17;101477.63;;;7.49;71.70
78014;BME280;67222;50.182;8.734;2023-02-02T20:11:47;101472.50;;;7.56;71.00
78014;BME280;67222;50.182;8.734;2023-02-02T20:16:44;101486.56;;;7.48;71.47
78014;BME280;67222;50.182;8.734;2023-02-02T20:19:18;101488.06;;;7.51;71.51
78014;BME280;67222;50.182;8.734;2023-02-02T20:21:46;101487.72;;;7.46;72.18
78014;BME280;67222;50.182;8.734;2023-02-02T20:24:22;101496.66;;;7.45;72.24
78014;BME280;67222;50.182;8.734;2023-02-02T20:26:49;101498.94;;;7.40;71.79
78014;BME280;67222;50.182;8.734;2023-02-02T20:29:23;101500.97;;;7.46;71.60
78014;BME280;67222;50.182;8.734;2023-02-02T20:31:51;101508.63;;;7.49;71.44
78014;BME280;67222;50.182;8.734;2023-02-02T20:34:32;101510.06;;;7.43;71.68
78014;BME280;67222;50.182;8.734;2023-02-02T20:39:41;101506.91;;;7.40;70.94
78014;BME280;67222;50.182;8.734;2023-02-02T20:42:09;101512.88;;;7.42;71.61
78014;BME280;67222;50.182;8.734;2023-02-02T20:44:35;101511.38;;;7.39;72.25
78014;BME280;67222;50.182;8.734;2023-02-02T20:47:01;101518.78;;;7.27;72.13
78014;BME280;67222;50.182;8.734;2023-02-02T20:49:27;101517.50;;;7.40;72.51
78014;BME280;67222;50.182;8.734;2023-02-02T20:51:57;101526.09;;;7.34;71.90
78014;BME280;67222;50.182;8.734;2023-02-02T20:54:23;101518.16;;;7.34;71.77
78014;BME280;67222;50.182;8.734;2023-02-02T20:56:49;101524.94;;;7.36;71.63